»·PEaware :: N520MP KABQ-KASE

N520MP :: KABQ-KASE

FLIGHT INFORMATION

Flight Status: Arrived
Operator: Privately registered:
United States
More flights under this callsign
Pilot: Manuel P. (9695)
Aircraft: BOMBARDIER BD-100 CHALLENGER 300
(CL30)
More flights by this aircraft type
Origin: KABQ Albuquerque Intl Sunport
United States
Destination: KASE Aspen-Pitkin Co/Sardy
United States
More flights between these airports :: More routes between these airports
Route: +LARGO3 RSK PITMN DBL
File this flight plan on PilotEdge
Remarks:
Altitude:
(Current/Filed)
44,000ft
Speed:
(Current/Filed)
400kts
Departed: 28-Oct-17 12:27 PM
Arrived: 28-Oct-17 01:26 PM
Distance/Time
Traveled:
251nm/0:59
Distance/Time
To Go:
Arrived

Flight Plot

Page will automatically refresh every two minutes.

Flight plan parsing failed; only flown route is shown


Map Options




Map Legend


Flown Route
Filed Route
Departure Airport
Arrival Airport
Navaid (VOR, NDB)
Fix

Horizontal Profiles

Position Reports

Time Latitude Longitude Heading Altitude Ground
Speed
28-Oct-17 12:09 35.036540 -106.617650 137 5360ft 0kts
28-Oct-17 12:10 35.036540 -106.617650 137 5360ft 0kts
28-Oct-17 12:11 35.036540 -106.617650 137 5360ft 0kts
28-Oct-17 12:12 35.036540 -106.617650 137 5360ft 0kts
28-Oct-17 12:13 35.036540 -106.617650 137 5360ft 0kts
28-Oct-17 12:14 35.036540 -106.617650 137 5360ft 0kts
28-Oct-17 12:15 35.036540 -106.617650 137 5360ft 0kts
28-Oct-17 12:16 35.036540 -106.617650 137 5360ft 0kts
28-Oct-17 12:17 35.036540 -106.617650 137 5360ft 0kts
28-Oct-17 12:18 35.036540 -106.617650 137 5360ft 0kts
28-Oct-17 12:19 35.036540 -106.617650 137 5360ft 0kts
28-Oct-17 12:20 35.036540 -106.617650 137 5360ft 0kts
28-Oct-17 12:21 35.036540 -106.617650 137 5360ft 0kts
28-Oct-17 12:22 35.036540 -106.617650 137 5360ft 0kts
28-Oct-17 12:23 35.036540 -106.617650 137 5360ft 0kts
28-Oct-17 12:24 35.036540 -106.617650 137 5360ft 0kts
28-Oct-17 12:25 35.036457 -106.617465 92 5361ft 0kts
28-Oct-17 12:26 35.036469 -106.616992 86 5360ft 7kts
28-Oct-17 12:27 35.036966 -106.614953 46 5360ft 9kts
28-Oct-17 12:28 35.038983 -106.615570 307 5360ft 12kts
28-Oct-17 12:29 35.041434 -106.619432 308 5360ft 16kts
28-Oct-17 12:30 35.042936 -106.621413 351 5361ft 0kts
28-Oct-17 12:31 35.044161 -106.621369 17 5361ft 9kts
28-Oct-17 12:32 35.044112 -106.597956 90 5747ft 174kts
28-Oct-17 12:33 35.004198 -106.570166 217 8001ft 259kts
28-Oct-17 12:34 35.010451 -106.648389 294 7981ft 255kts
28-Oct-17 12:35 35.029814 -106.730235 280 7985ft 254kts
28-Oct-17 12:36 35.059802 -106.805646 343 8006ft 281kts
28-Oct-17 12:37 35.139090 -106.825869 350 8014ft 290kts
28-Oct-17 12:38 35.216755 -106.840474 352 9259ft 286kts
28-Oct-17 12:39 35.300184 -106.854131 352 11120ft 345kts
28-Oct-17 12:40 35.398906 -106.869406 352 13641ft 367kts
28-Oct-17 12:41 35.498443 -106.884399 351 16489ft 343kts
28-Oct-17 12:42 35.587646 -106.898007 351 18860ft 319kts
28-Oct-17 12:43 35.677083 -106.911609 352 20215ft 344kts
28-Oct-17 12:44 35.774809 -106.926459 352 21179ft 353kts
28-Oct-17 12:45 35.868941 -106.940781 352 23217ft 332kts
28-Oct-17 12:46 35.957003 -106.954206 352 25415ft 309kts
28-Oct-17 12:47 36.030433 -106.989560 317 27616ft 289kts
28-Oct-17 12:48 36.080749 -107.060050 315 29779ft 262kts
28-Oct-17 12:49 36.128721 -107.131132 315 31607ft 283kts
28-Oct-17 12:50 36.182188 -107.212400 314 32849ft 331kts
28-Oct-17 12:51 36.244886 -107.304508 323 33935ft 369kts
28-Oct-17 12:52 36.342411 -107.341132 3 35511ft 384kts
28-Oct-17 12:53 36.446414 -107.326621 4 37971ft 377kts
28-Oct-17 12:54 36.550094 -107.312154 4 40019ft 375kts
28-Oct-17 12:55 36.656282 -107.297330 4 40188ft 399kts
28-Oct-17 12:56 36.768677 -107.281597 5 40181ft 412kts
28-Oct-17 12:57 36.880525 -107.266472 8 38644ft 407kts
28-Oct-17 12:58 36.991791 -107.250743 8 36827ft 403kts
28-Oct-17 12:59 37.101172 -107.235161 7 35010ft 397kts
28-Oct-17 13:00 37.208450 -107.219993 8 33247ft 390kts
28-Oct-17 13:01 37.317858 -107.204322 8 31136ft 399kts
28-Oct-17 13:02 37.428825 -107.188414 8 28791ft 409kts
28-Oct-17 13:03 37.542642 -107.172092 8 27072ft 412kts
28-Oct-17 13:04 37.653168 -107.156026 6 24752ft 395kts
28-Oct-17 13:05 37.763465 -107.139933 5 24374ft 402kts
28-Oct-17 13:06 37.871514 -107.151693 355 24218ft 390kts
28-Oct-17 13:07 37.977766 -107.165254 357 24204ft 382kts
28-Oct-17 13:08 38.082214 -107.178819 357 24203ft 377kts
28-Oct-17 13:09 38.187209 -107.191982 357 24218ft 392kts
28-Oct-17 13:10 38.278256 -107.203451 357 24215ft 399kts
28-Oct-17 13:11 38.388794 -107.217423 357 24212ft 402kts
28-Oct-17 13:12 38.515715 -107.233600 357 23704ft 382kts
28-Oct-17 13:13 38.602459 -107.244603 356 21655ft 374kts
28-Oct-17 13:14 38.702338 -107.257018 354 19118ft 355kts
28-Oct-17 13:15 38.799027 -107.269380 353 16938ft 350kts
28-Oct-17 13:16 38.894056 -107.281789 354 16976ft 342kts
28-Oct-17 13:17 38.991098 -107.294369 354 16980ft 362kts
28-Oct-17 13:18 39.093124 -107.295624 25 16971ft 378kts
28-Oct-17 13:19 39.173228 -107.214824 40 16988ft 378kts
28-Oct-17 13:20 39.263541 -107.156212 9 16971ft 348kts
28-Oct-17 13:21 39.355881 -107.135792 9 14987ft 330kts
28-Oct-17 13:22 39.439266 -107.117379 9 14968ft 283kts
28-Oct-17 13:23 39.516418 -107.101255 9 14376ft 301kts
28-Oct-17 13:24 39.568419 -107.042860 104 13979ft 266kts
28-Oct-17 13:25 39.509607 -106.999878 163 13811ft 262kts
28-Oct-17 13:26 39.442648 -106.972202 160 13372ft 241kts
28-Oct-17 13:27 39.382855 -106.944853 159 12696ft 222kts
28-Oct-17 13:28 39.325697 -106.917702 159 11075ft 206kts
28-Oct-17 13:29 39.276288 -106.893914 161 8938ft 177kts
28-Oct-17 13:30 39.231597 -106.872866 159 7863ft 167kts
28-Oct-17 13:31 39.219346 -106.866304 70 7843ft 9kts
28-Oct-17 13:32 39.222034 -106.867135 339 7844ft 13kts
28-Oct-17 13:33 39.223203 -106.866992 65 7843ft 0kts

Navigation Log

Ident Type
Flight plan parsing failed, navigation log unavailable